createdAt,value
2018-06-03T00:04:12.976Z,8.10
2018-06-03T00:08:47.266Z,8.28
2018-06-03T00:13:21.607Z,6.12
2018-06-03T00:17:55.970Z,5.62
2018-06-03T00:22:32.249Z,6.47
2018-06-03T00:27:06.674Z,7.80
2018-06-03T00:31:41.229Z,6.50
2018-06-03T00:36:26.726Z,6.03
2018-06-03T00:41:01.034Z,5.97
2018-06-03T00:45:35.494Z,6.47
2018-06-03T00:50:09.934Z,6.17
2018-06-03T00:54:44.418Z,5.55
2018-06-03T00:59:19.090Z,5.50
2018-06-03T01:03:54.131Z,5.80
2018-06-03T01:08:28.674Z,6.40
2018-06-03T01:13:03.318Z,5.95
2018-06-03T01:17:38.226Z,6.25
2018-06-03T01:22:12.671Z,6.00
2018-06-03T01:26:46.884Z,6.17
2018-06-03T01:31:21.448Z,6.10
2018-06-03T01:35:55.998Z,6.20
2018-06-03T01:40:30.758Z,6.78
2018-06-03T01:45:05.477Z,6.65
2018-06-03T01:49:39.894Z,6.55
2018-06-03T01:54:14.412Z,6.22
2018-06-03T01:58:49.693Z,6.33
2018-06-03T02:03:24.354Z,6.10
2018-06-03T02:07:58.794Z,6.90
2018-06-03T02:12:33.245Z,7.15
2018-06-03T02:17:07.755Z,6.67
2018-06-03T02:21:42.152Z,7.03
2018-06-03T02:26:16.669Z,7.80
2018-06-03T02:30:51.293Z,6.85
2018-06-03T02:35:25.668Z,6.87
2018-06-03T02:40:00.455Z,6.75
2018-06-03T02:44:35.010Z,6.97
2018-06-03T02:49:09.402Z,8.05
2018-06-03T02:53:43.753Z,9.08
2018-06-03T02:58:18.192Z,7.90
2018-06-03T03:02:52.695Z,9.45
2018-06-03T03:07:27.169Z,9.58
2018-06-03T03:12:01.683Z,9.33
2018-06-03T03:16:36.038Z,9.70
2018-06-03T03:21:10.346Z,8.25
2018-06-03T03:25:44.675Z,8.73
2018-06-03T03:30:19.538Z,9.53
2018-06-03T03:34:54.165Z,10.47
2018-06-03T03:39:28.650Z,9.50
2018-06-03T03:44:02.862Z,10.53
2018-06-03T03:48:37.178Z,9.83
2018-06-03T03:53:11.374Z,10.58
2018-06-03T03:57:45.595Z,10.80
2018-06-03T04:02:19.656Z,11.45
2018-06-03T04:06:53.886Z,10.43
2018-06-03T04:11:28.323Z,10.10
2018-06-03T04:16:02.862Z,10.03
2018-06-03T04:20:37.208Z,10.48
2018-06-03T04:25:11.726Z,9.75
2018-06-03T04:29:46.007Z,9.58
2018-06-03T04:34:22.824Z,19.82
2018-06-03T04:38:57.422Z,9.43
2018-06-03T04:43:31.743Z,9.80
2018-06-03T04:48:06.262Z,9.98
2018-06-03T04:52:40.635Z,9.18
2018-06-03T04:57:15.114Z,9.48
2018-06-03T05:01:49.565Z,10.23
2018-06-03T05:06:23.918Z,10.75
2018-06-03T05:10:58.505Z,8.30
2018-06-03T05:15:32.747Z,9.35
2018-06-03T05:20:07.046Z,8.43
2018-06-03T05:24:41.478Z,9.08
2018-06-03T05:29:15.679Z,7.90
2018-06-03T05:33:50.026Z,8.15
2018-06-03T05:38:24.496Z,7.67
2018-06-03T05:42:58.887Z,7.65
2018-06-03T05:47:33.138Z,8.30
2018-06-03T05:52:07.546Z,8.08
2018-06-03T05:56:41.909Z,8.10
2018-06-03T06:01:16.641Z,7.55
2018-06-03T06:05:50.850Z,7.50
2018-06-03T06:10:25.190Z,7.45
2018-06-03T06:14:59.808Z,7.37
2018-06-03T06:19:33.788Z,7.40
2018-06-03T06:24:08.170Z,7.42
2018-06-03T06:28:42.631Z,7.92
2018-06-03T06:33:16.923Z,8.43
2018-06-03T06:37:51.121Z,7.92
2018-06-03T06:42:25.685Z,7.50
2018-06-03T06:47:00.047Z,6.95
2018-06-03T06:51:34.611Z,7.00
2018-06-03T06:56:09.326Z,6.72
2018-06-03T07:00:43.871Z,8.48
2018-06-03T07:05:18.133Z,6.40
2018-06-03T07:09:52.334Z,5.80
2018-06-03T07:14:26.672Z,5.65
2018-06-03T07:19:00.935Z,11.80
2018-06-03T07:23:35.313Z,5.92
2018-06-03T07:28:09.531Z,5.92
2018-06-03T07:32:44.121Z,5.40
2018-06-03T07:37:18.461Z,5.10
2018-06-03T07:41:52.820Z,4.62
2018-06-03T07:46:27.313Z,4.50
2018-06-03T07:51:01.575Z,4.60
2018-06-03T07:55:36.110Z,4.25
2018-06-03T08:00:10.649Z,4.45
2018-06-03T08:04:45.035Z,4.10
2018-06-03T08:09:20.443Z,3.90
2018-06-03T08:13:55.426Z,3.30
2018-06-03T08:18:29.783Z,3.67
2018-06-03T08:23:04.401Z,3.37
2018-06-03T08:27:38.893Z,3.95
2018-06-03T08:32:14.643Z,3.22
2018-06-03T08:36:49.152Z,2.52
2018-06-03T08:41:23.105Z,1.95
2018-06-03T08:45:57.345Z,2.27
2018-06-03T08:50:39.012Z,2.30
2018-06-03T08:55:13.705Z,1.90
2018-06-03T08:59:50.371Z,2.00
2018-06-03T09:04:39.756Z,1.90
2018-06-03T09:09:14.073Z,1.70
2018-06-03T09:13:48.702Z,1.90
2018-06-03T09:18:23.049Z,1.70
2018-06-03T09:22:58.656Z,1.72
2018-06-03T09:27:33.038Z,1.77
2018-06-03T09:32:08.059Z,1.95
2018-06-03T09:36:42.821Z,2.10
2018-06-03T09:41:16.961Z,2.00
2018-06-03T09:45:51.814Z,2.20
2018-06-03T09:50:27.532Z,1.98
2018-06-03T09:55:02.871Z,1.70
2018-06-03T09:59:37.486Z,1.65
2018-06-03T10:04:12.230Z,1.57
2018-06-03T10:08:54.619Z,1.67
2018-06-03T10:13:29.346Z,1.70
2018-06-03T10:18:04.054Z,1.80
2018-06-03T10:22:38.534Z,1.90
2018-06-03T10:27:13.360Z,1.70
2018-06-03T10:31:47.881Z,1.50
2018-06-03T10:36:22.131Z,1.90
2018-06-03T10:40:56.434Z,2.00
2018-06-03T10:45:31.031Z,1.85
2018-06-03T10:50:05.494Z,1.90
2018-06-03T10:54:39.941Z,2.25
2018-06-03T10:59:14.334Z,2.05
2018-06-03T11:03:49.293Z,1.87
2018-06-03T11:08:23.715Z,2.15
2018-06-03T11:12:58.034Z,2.00
2018-06-03T11:17:32.684Z,2.17
2018-06-03T11:22:07.239Z,2.25
2018-06-03T11:26:42.213Z,2.10
2018-06-03T11:31:18.205Z,2.00
2018-06-03T11:35:52.842Z,2.05
2018-06-03T11:40:27.272Z,2.15
2018-06-03T11:45:01.700Z,1.90
2018-06-03T11:49:36.218Z,1.85
2018-06-03T11:54:10.853Z,1.87
2018-06-03T11:58:52.483Z,1.85
2018-06-03T12:03:26.897Z,1.90
2018-06-03T12:08:01.260Z,1.95
2018-06-03T12:12:35.881Z,1.98
2018-06-03T12:17:10.498Z,1.70
2018-06-03T12:21:44.836Z,1.90
2018-06-03T12:26:19.230Z,2.20
2018-06-03T12:30:53.887Z,1.90
2018-06-03T12:35:28.281Z,1.60
2018-06-03T12:40:03.374Z,1.70
2018-06-03T12:44:37.424Z,1.82
2018-06-03T12:49:11.818Z,1.55
2018-06-03T12:53:45.958Z,1.80
2018-06-03T12:58:20.328Z,2.00
2018-06-03T13:02:54.948Z,1.87
2018-06-03T13:07:29.521Z,2.20
2018-06-03T13:12:04.163Z,2.77
2018-06-03T13:16:38.866Z,2.10
2018-06-03T13:21:14.299Z,1.80
2018-06-03T13:25:49.813Z,1.87
2018-06-03T13:30:24.454Z,2.20
2018-06-03T13:35:00.007Z,2.30
2018-06-03T13:39:34.540Z,2.00
2018-06-03T13:44:09.073Z,2.10
2018-06-03T13:48:43.272Z,1.95
2018-06-03T13:53:17.758Z,1.90
2018-06-03T13:57:51.927Z,1.98
2018-06-03T14:02:26.386Z,2.08
2018-06-03T14:07:00.891Z,1.92
2018-06-03T14:11:35.202Z,2.10
2018-06-03T14:16:09.574Z,2.30
2018-06-03T14:20:50.547Z,1.87
2018-06-03T14:25:26.187Z,2.00
2018-06-03T14:30:00.816Z,2.05
2018-06-03T14:34:35.166Z,2.27
2018-06-03T14:39:10.115Z,2.00
2018-06-03T14:43:44.440Z,2.02
2018-06-03T14:48:18.881Z,2.10
2018-06-03T14:52:53.433Z,2.33
2018-06-03T14:57:27.646Z,1.98
2018-06-03T15:02:02.051Z,1.90
2018-06-03T15:06:36.374Z,2.15
2018-06-03T15:11:11.871Z,2.15
2018-06-03T15:15:46.349Z,1.50
2018-06-03T15:20:20.939Z,1.62
2018-06-03T15:24:55.317Z,1.75
2018-06-03T15:29:31.159Z,1.67
2018-06-03T15:34:05.932Z,1.65
2018-06-03T15:38:41.647Z,1.77
2018-06-03T15:43:16.172Z,1.35
2018-06-03T15:47:50.713Z,1.60
2018-06-03T15:52:25.271Z,1.75
2018-06-03T15:57:00.903Z,1.60
2018-06-03T16:01:35.396Z,1.72
2018-06-03T16:06:10.277Z,1.62
2018-06-03T16:10:45.786Z,1.70
2018-06-03T16:15:20.783Z,1.70
2018-06-03T16:19:56.431Z,1.62
2018-06-03T16:24:35.346Z,1.80
2018-06-03T16:29:11.996Z,1.80
2018-06-03T16:33:48.266Z,1.80
2018-06-03T16:38:25.003Z,1.80
2018-06-03T16:43:02.149Z,1.70
2018-06-03T16:47:42.228Z,1.62
2018-06-03T16:52:19.986Z,2.00
2018-06-03T16:56:56.702Z,1.72
2018-06-03T17:01:33.158Z,1.90
2018-06-03T17:06:10.082Z,1.65
2018-06-03T17:10:46.316Z,1.70
2018-06-03T17:15:23.940Z,1.65
2018-06-03T17:19:59.242Z,1.50
2018-06-03T17:24:33.601Z,3.17
2018-06-03T17:29:09.838Z,1.80
2018-06-03T17:33:44.354Z,1.95
2018-06-03T17:38:18.753Z,22.75
2018-06-03T17:42:52.951Z,2.12
2018-06-03T17:47:27.317Z,1.62
2018-06-03T17:52:01.732Z,1.90
2018-06-03T17:56:35.931Z,2.65
2018-06-03T18:01:13.751Z,1.82
2018-06-03T18:05:48.225Z,1.65
2018-06-03T18:10:22.458Z,1.82
2018-06-03T18:14:57.322Z,2.20
2018-06-03T18:19:31.895Z,2.20
2018-06-03T18:24:06.466Z,1.90
2018-06-03T18:28:40.796Z,1.80
2018-06-03T18:33:15.218Z,2.08
2018-06-03T18:37:49.531Z,1.95
2018-06-03T18:42:23.488Z,5.22
2018-06-03T18:46:57.684Z,2.17
2018-06-03T18:51:32.165Z,2.30
2018-06-03T18:56:06.516Z,2.30
2018-06-03T19:00:40.787Z,2.35
2018-06-03T19:05:15.078Z,2.20
2018-06-03T19:09:54.313Z,2.60
2018-06-03T19:14:29.703Z,2.30
2018-06-03T19:19:04.177Z,2.60
2018-06-03T19:23:38.516Z,2.45
2018-06-03T19:28:12.907Z,4.80
2018-06-03T19:32:47.229Z,2.90
2018-06-03T19:37:21.406Z,2.50
2018-06-03T19:41:55.946Z,2.60
2018-06-03T19:46:30.159Z,2.80
2018-06-03T19:51:05.544Z,2.90
2018-06-03T19:55:39.803Z,2.90
2018-06-03T20:00:15.024Z,2.90
2018-06-03T20:04:49.647Z,2.60
2018-06-03T20:09:24.234Z,2.80
2018-06-03T20:13:58.709Z,2.98
2018-06-03T20:18:33.276Z,3.30
2018-06-03T20:23:07.942Z,3.17
2018-06-03T20:27:42.355Z,3.02
2018-06-03T20:32:16.944Z,2.83
2018-06-03T20:36:51.848Z,3.58
2018-06-03T20:41:26.546Z,3.42
2018-06-03T20:46:00.870Z,3.22
2018-06-03T20:50:35.385Z,3.30
2018-06-03T20:55:09.901Z,3.30
2018-06-03T20:59:44.389Z,3.45
2018-06-03T21:04:18.377Z,3.75
2018-06-03T21:08:52.729Z,3.33
2018-06-03T21:13:27.513Z,3.70
2018-06-03T21:18:02.253Z,3.50
2018-06-03T21:22:36.858Z,3.50
2018-06-03T21:27:11.095Z,3.58
2018-06-03T21:31:45.381Z,3.60
2018-06-03T21:36:19.879Z,3.55
2018-06-03T21:40:54.478Z,3.20
2018-06-03T21:45:29.066Z,3.83
2018-06-03T21:50:03.358Z,3.92
2018-06-03T21:54:37.629Z,4.03
2018-06-03T21:59:12.017Z,3.85
2018-06-03T22:03:46.193Z,3.70
2018-06-03T22:08:20.739Z,3.45
2018-06-03T22:12:55.517Z,4.15
2018-06-03T22:17:30.027Z,4.10
2018-06-03T22:22:04.506Z,3.98
2018-06-03T22:26:39.094Z,4.53
2018-06-03T22:31:13.318Z,3.90
2018-06-03T22:35:47.705Z,4.00
2018-06-03T22:40:22.386Z,4.15
2018-06-03T22:44:57.038Z,4.20
2018-06-03T22:49:31.486Z,4.28
2018-06-03T22:54:06.573Z,4.60
2018-06-03T22:58:41.062Z,4.40
2018-06-03T23:03:16.831Z,4.40
2018-06-03T23:07:52.188Z,4.90
2018-06-03T23:12:26.386Z,4.45
2018-06-03T23:17:00.657Z,5.33
2018-06-03T23:21:34.965Z,4.70
2018-06-03T23:26:09.415Z,4.92
2018-06-03T23:30:43.782Z,4.85
2018-06-03T23:35:18.198Z,4.70
2018-06-03T23:39:52.732Z,5.00
2018-06-03T23:44:26.954Z,4.80
2018-06-03T23:49:01.427Z,5.00
2018-06-03T23:53:36.091Z,5.28
2018-06-03T23:58:10.033Z,4.95
